createdAt,value
2022-11-05T00:04:15.294Z,975.82
2022-11-05T00:09:46.522Z,976.03
2022-11-05T00:15:18.533Z,976.19
2022-11-05T00:20:50.165Z,976.24
2022-11-05T00:26:21.904Z,976.21
2022-11-05T00:31:53.780Z,976.04
2022-11-05T00:37:25.370Z,976.2
2022-11-05T00:42:57.210Z,976.53
2022-11-05T00:48:33.004Z,976.16
2022-11-05T00:54:04.783Z,976.54
2022-11-05T00:59:37.032Z,976.64
2022-11-05T01:05:08.392Z,976.32
2022-11-05T01:10:40.076Z,977.28
2022-11-05T01:16:11.906Z,977.57
2022-11-05T01:21:43.509Z,977.47
2022-11-05T01:27:15.247Z,977.76
2022-11-05T01:32:46.964Z,977.58
2022-11-05T01:38:18.655Z,977.58
2022-11-05T01:43:50.376Z,977.28
2022-11-05T01:49:40.395Z,977.6
2022-11-05T01:55:12.407Z,977.9
2022-11-05T02:00:44.141Z,977.76
2022-11-05T02:06:16.060Z,978.16
2022-11-05T02:11:47.589Z,978.16
2022-11-05T02:17:19.179Z,978.13
2022-11-05T02:22:50.799Z,978.23
2022-11-05T02:28:22.599Z,978.22
2022-11-05T02:33:54.672Z,977.77
2022-11-05T02:39:25.938Z,977.65
2022-11-05T02:44:57.901Z,977.56
2022-11-05T02:50:33.772Z,977.46
2022-11-05T02:56:05.752Z,977.73
2022-11-05T03:01:37.863Z,977.69
2022-11-05T03:07:08.910Z,977.52
2022-11-05T03:12:41.040Z,977.81
2022-11-05T03:18:12.446Z,977.86
2022-11-05T03:23:44.608Z,977.77
2022-11-05T03:29:15.851Z,978.1
2022-11-05T03:34:47.921Z,978.17
2022-11-05T03:40:20.056Z,978.59
2022-11-05T03:45:51.063Z,978.49
2022-11-05T03:51:27.557Z,978.43
2022-11-05T03:56:58.944Z,977.99
2022-11-05T04:02:31.018Z,978.33
2022-11-05T04:08:02.540Z,978.29
2022-11-05T04:13:33.938Z,979.09
2022-11-05T04:19:05.870Z,978.86
2022-11-05T04:24:37.775Z,979.12
2022-11-05T04:30:09.151Z,978.95
2022-11-05T04:35:40.947Z,979.15
2022-11-05T04:41:12.859Z,979.36
2022-11-05T04:46:44.515Z,978.84
2022-11-05T04:52:20.549Z,978.95
2022-11-05T04:57:52.382Z,979.37
2022-11-05T05:03:24.353Z,979.54
2022-11-05T05:08:55.747Z,979.56
2022-11-05T05:14:27.553Z,980.26
2022-11-05T05:19:59.045Z,979.92
2022-11-05T05:25:30.863Z,979.9
2022-11-05T05:31:02.768Z,980.26
2022-11-05T05:36:34.318Z,979.82
2022-11-05T05:42:06.007Z,979.86
2022-11-05T05:47:37.983Z,980.1
2022-11-05T05:53:14.390Z,980.11
2022-11-05T05:58:45.566Z,980.17
2022-11-05T06:04:17.564Z,980.61
2022-11-05T06:09:49.225Z,980.24
2022-11-05T06:15:20.724Z,980.06
2022-11-05T06:20:52.358Z,980.13
2022-11-05T06:26:24.200Z,980.74
2022-11-05T06:31:55.872Z,980.61
2022-11-05T06:37:27.827Z,981.07
2022-11-05T06:42:59.515Z,980.91
2022-11-05T06:48:31.011Z,981.15
2022-11-05T06:54:07.126Z,981.3
2022-11-05T06:59:38.827Z,980.95
2022-11-05T07:05:10.763Z,981.01
2022-11-05T07:10:42.296Z,980.96
2022-11-05T07:16:14.010Z,981.29
2022-11-05T07:21:46.195Z,981.5
2022-11-05T07:27:17.802Z,981.67
2022-11-05T07:32:49.075Z,981.43
2022-11-05T07:38:21.196Z,981.54
2022-11-05T07:43:52.653Z,981.63
2022-11-05T07:49:24.419Z,981.62
2022-11-05T07:55:00.455Z,981.59
2022-11-05T08:00:32.618Z,981.5
2022-11-05T08:06:04.084Z,981.54
2022-11-05T08:11:35.704Z,981.33
2022-11-05T08:17:07.332Z,981.13
2022-11-05T08:22:39.147Z,981.35
2022-11-05T08:28:10.955Z,981.66
2022-11-05T08:33:42.664Z,982.01
2022-11-05T08:39:17.923Z,982.08
2022-11-05T08:44:46.003Z,982.35
2022-11-05T08:50:17.747Z,982.03
2022-11-05T08:55:55.813Z,981.87
2022-11-05T09:01:28.535Z,982.63
2022-11-05T09:07:00.410Z,982.3
2022-11-05T09:12:31.027Z,982.53
2022-11-05T09:18:02.902Z,982.56
2022-11-05T09:23:34.466Z,983.05
2022-11-05T09:29:14.588Z,982.57
2022-11-05T09:34:37.981Z,982.9
2022-11-05T09:40:09.905Z,982.83
2022-11-05T09:45:41.286Z,983.06
2022-11-05T09:51:13.238Z,983.27
2022-11-05T09:56:51.847Z,983.42
2022-11-05T10:02:23.022Z,983.34
2022-11-05T10:07:54.633Z,983.16
2022-11-05T10:13:26.816Z,983.68
2022-11-05T10:18:58.489Z,984.16
2022-11-05T10:24:29.826Z,984.12
2022-11-05T10:30:01.595Z,984.16
2022-11-05T10:35:33.578Z,984.24
2022-11-05T10:41:05.158Z,984.41
2022-11-05T10:46:36.902Z,984.24
2022-11-05T10:52:08.890Z,984.1
2022-11-05T10:57:45.790Z,984.91
2022-11-05T11:03:16.683Z,984.84
2022-11-05T11:08:48.386Z,984.71
2022-11-05T11:14:19.815Z,985.01
2022-11-05T11:19:51.538Z,984.94
2022-11-05T11:25:23.219Z,984.73
2022-11-05T11:30:54.836Z,984.78
2022-11-05T11:36:27.345Z,985.12
2022-11-05T11:41:58.579Z,985.0
2022-11-05T11:47:30.334Z,985.24
2022-11-05T11:53:02.003Z,985.03
2022-11-05T11:58:38.623Z,985.86
2022-11-05T12:04:09.698Z,985.43
2022-11-05T12:09:41.904Z,985.48
2022-11-05T12:15:13.142Z,985.59
2022-11-05T12:20:54.041Z,985.39
2022-11-05T12:26:16.591Z,985.37
2022-11-05T12:31:48.172Z,986.19
2022-11-05T12:37:20.104Z,985.75
2022-11-05T12:42:51.712Z,985.52
2022-11-05T12:48:37.352Z,986.08
2022-11-05T12:53:55.236Z,985.42
2022-11-05T12:59:31.423Z,985.54
2022-11-05T13:05:03.022Z,985.43
2022-11-05T13:10:34.672Z,985.25
2022-11-05T13:16:06.522Z,984.99
2022-11-05T13:21:38.124Z,984.27
2022-11-05T13:27:10.699Z,984.56
2022-11-05T13:32:41.973Z,984.46
2022-11-05T13:38:13.583Z,984.61
2022-11-05T13:43:45.013Z,984.28
2022-11-05T13:49:17.243Z,984.2
2022-11-05T13:54:48.765Z,983.95
2022-11-05T14:00:24.681Z,983.89
2022-11-05T14:05:57.250Z,984.12
2022-11-05T14:11:27.983Z,984.41
2022-11-05T14:16:59.808Z,984.07
2022-11-05T14:22:32.316Z,984.45
2022-11-05T14:28:03.942Z,984.19
2022-11-05T14:33:35.306Z,983.93
2022-11-05T14:39:06.759Z,983.74
2022-11-05T14:44:39.187Z,983.67
2022-11-05T14:50:10.138Z,984.16
2022-11-05T14:55:42.151Z,983.8
2022-11-05T15:01:18.626Z,983.93
2022-11-05T15:06:49.722Z,984.18
2022-11-05T15:12:21.891Z,983.84
2022-11-05T15:17:53.240Z,984.1
2022-11-05T15:23:25.092Z,983.93
2022-11-05T15:28:56.800Z,983.41
2022-11-05T15:34:28.379Z,983.39
2022-11-05T15:40:00.153Z,983.34
2022-11-05T15:45:32.459Z,983.35
2022-11-05T15:51:04.559Z,983.3
2022-11-05T15:56:35.221Z,983.42
2022-11-05T16:02:11.943Z,983.35
2022-11-05T16:07:44.375Z,983.74
2022-11-05T16:13:15.460Z,983.25
2022-11-05T16:18:46.896Z,983.75
2022-11-05T16:24:18.166Z,983.98
2022-11-05T16:29:50.273Z,984.07
2022-11-05T16:35:21.787Z,983.62
2022-11-05T16:40:53.428Z,983.74
2022-11-05T16:46:25.340Z,984.02
2022-11-05T16:51:57.246Z,983.88
2022-11-05T16:57:28.803Z,983.85
2022-11-05T17:03:08.734Z,983.59
2022-11-05T17:08:40.886Z,983.23
2022-11-05T17:14:12.370Z,983.17
2022-11-05T17:19:44.179Z,982.99
2022-11-05T17:25:15.988Z,982.88
2022-11-05T17:30:53.581Z,982.94
2022-11-05T17:36:19.508Z,982.88
2022-11-05T17:41:51.002Z,982.9
2022-11-05T17:47:22.662Z,982.93
2022-11-05T17:52:55.437Z,982.89
2022-11-05T17:58:26.093Z,982.68
2022-11-05T18:04:09.628Z,982.72
2022-11-05T18:09:34.851Z,982.79
2022-11-05T18:15:05.843Z,982.6
2022-11-05T18:20:37.699Z,982.57
2022-11-05T18:26:09.312Z,982.61
2022-11-05T18:31:40.956Z,982.53
2022-11-05T18:37:12.482Z,982.49
2022-11-05T18:42:44.250Z,982.41
2022-11-05T18:48:16.107Z,982.37
2022-11-05T18:53:47.761Z,982.23
2022-11-05T18:59:39.977Z,982.06
2022-11-05T19:05:30.335Z,981.9
2022-11-05T19:10:27.451Z,981.91
2022-11-05T19:15:59.044Z,981.89
2022-11-05T19:21:30.839Z,981.74
2022-11-05T19:27:02.411Z,981.68
2022-11-05T19:32:34.172Z,981.72
2022-11-05T19:38:06.051Z,981.82
2022-11-05T19:43:37.528Z,981.5
2022-11-05T19:49:09.918Z,981.44
2022-11-05T19:54:41.227Z,981.28
2022-11-05T20:00:13.059Z,981.38
2022-11-05T20:05:49.118Z,981.09
2022-11-05T20:11:20.701Z,981.05
2022-11-05T20:16:52.464Z,980.94
2022-11-05T20:22:24.364Z,981.09
2022-11-05T20:27:55.963Z,981.43
2022-11-05T20:33:28.297Z,981.65
2022-11-05T20:38:59.540Z,981.55
2022-11-05T20:44:31.526Z,981.49
2022-11-05T20:50:03.404Z,981.4
2022-11-05T20:55:34.912Z,981.47
2022-11-05T21:01:06.662Z,981.53
2022-11-05T21:06:42.356Z,981.56
2022-11-05T21:12:13.986Z,981.53
2022-11-05T21:17:46.076Z,981.44
2022-11-05T21:23:17.842Z,981.09
2022-11-05T21:28:49.281Z,981.01
2022-11-05T21:34:20.942Z,981.09
2022-11-05T21:39:53.003Z,981.14
2022-11-05T21:45:24.550Z,981.07
2022-11-05T21:50:56.199Z,980.97
2022-11-05T21:56:27.832Z,980.9
2022-11-05T22:01:59.912Z,980.59
2022-11-05T22:07:36.111Z,980.68
2022-11-05T22:13:07.688Z,980.38
2022-11-05T22:18:39.126Z,980.52
2022-11-05T22:24:10.980Z,980.44
2022-11-05T22:29:42.595Z,980.29
2022-11-05T22:35:14.223Z,980.52
2022-11-05T22:40:46.028Z,980.54
2022-11-05T22:46:17.813Z,980.5
2022-11-05T22:51:49.718Z,980.38
2022-11-05T22:57:21.219Z,980.16
2022-11-05T23:02:53.567Z,979.99
2022-11-05T23:08:28.978Z,979.95
2022-11-05T23:14:00.822Z,979.6
2022-11-05T23:19:32.863Z,979.79
2022-11-05T23:25:04.156Z,980.06
2022-11-05T23:30:36.805Z,980.16
2022-11-05T23:36:07.606Z,980.17
2022-11-05T23:41:39.635Z,980.08
2022-11-05T23:47:11.314Z,980.06
2022-11-05T23:52:43.178Z,980.08
2022-11-05T23:58:15.817Z,979.99
